Time;durP1;ratioP1;P1;durP2;ratioP2;P2;SDS_P1;SDS_P2;PMS_P1;PMS_P2;Temp;Humidity;BMP_temperature;BMP_pressure;BME280_temperature;BME280_humidity;BME280_pressure;Samples;Min_cycle;Max_cycle;Signal;HPM_P1;HPM_P2
2022/06/09 00:01:35;;;;;;;0.40;0.40;;;17.20;99.90;;;;;;5056205;28;20311;-64
2022/06/09 00:04:08;;;;;;;0.63;0.63;;;17.20;99.90;;;;;;5065063;28;20298;-63
2022/06/09 00:06:40;;;;;;;0.52;0.50;;;17.20;99.90;;;;;;5064694;28;20204;-63
2022/06/09 00:09:08;;;;;;;0.40;0.40;;;17.10;99.90;;;;;;5061191;28;20211;-65
2022/06/09 00:11:38;;;;;;;0.47;0.47;;;17.10;99.90;;;;;;5063148;28;20231;-61
2022/06/09 00:14:05;;;;;;;0.43;0.43;;;17.10;99.90;;;;;;5060278;28;20287;-63
2022/06/09 00:16:32;;;;;;;0.70;0.70;;;17.20;99.90;;;;;;5061543;28;20653;-64
2022/06/09 00:18:59;;;;;;;0.60;0.60;;;17.10;99.90;;;;;;5058564;28;20287;-62
2022/06/09 00:21:27;;;;;;;0.43;0.43;;;17.10;99.90;;;;;;5066055;28;20798;-62
2022/06/09 00:23:54;;;;;;;1.33;0.70;;;17.00;99.90;;;;;;5057524;28;20227;-64
2022/06/09 00:26:21;;;;;;;0.77;0.60;;;17.10;99.90;;;;;;5063238;28;20287;-62
2022/06/09 00:28:48;;;;;;;0.40;0.40;;;17.10;99.90;;;;;;5071181;28;20230;-62
2022/06/09 00:31:15;;;;;;;0.70;0.70;;;17.20;99.90;;;;;;5055113;28;20342;-63
2022/06/09 00:33:42;;;;;;;0.43;0.43;;;17.20;99.90;;;;;;5063225;28;20242;-63
2022/06/09 00:36:09;;;;;;;0.57;0.55;;;17.20;99.90;;;;;;5069255;28;20310;-62
2022/06/09 00:38:37;;;;;;;0.60;0.60;;;17.10;99.90;;;;;;5066895;28;20915;-63
2022/06/09 00:41:04;;;;;;;0.70;0.70;;;17.10;99.90;;;;;;5071411;28;20249;-62
2022/06/09 00:43:32;;;;;;;0.50;0.50;;;17.00;99.90;;;;;;5064064;28;20196;-62
2022/06/09 00:46:06;;;;;;;0.63;0.63;;;17.00;99.90;;;;;;5071784;28;20230;-64
2022/06/09 00:48:41;;;;;;;0.70;0.70;;;16.90;99.90;;;;;;5063708;28;20672;-62
2022/06/09 00:51:23;;;;;;;0.60;0.60;;;16.90;99.90;;;;;;5065805;28;20234;-62
2022/06/09 00:53:55;;;;;;;0.57;0.57;;;16.90;99.90;;;;;;5064525;28;20204;-62
2022/06/09 00:56:23;;;;;;;0.70;0.70;;;16.80;99.90;;;;;;5066222;28;20241;-63
2022/06/09 00:58:53;;;;;;;0.60;0.60;;;16.70;99.90;;;;;;5064019;28;20842;-63
2022/06/09 01:01:21;;;;;;;0.60;0.60;;;16.70;99.90;;;;;;5059461;28;20220;-63
2022/06/09 01:03:53;;;;;;;0.70;0.70;;;16.60;99.90;;;;;;5070131;28;20625;-63
2022/06/09 01:06:23;;;;;;;0.70;0.70;;;16.70;99.90;;;;;;5060302;28;20206;-63
2022/06/09 01:08:59;;;;;;;0.60;0.60;;;16.70;99.90;;;;;;5063154;28;20323;-63
2022/06/09 01:11:26;;;;;;;0.40;0.40;;;16.70;99.90;;;;;;5065742;28;20222;-64
2022/06/09 01:13:56;;;;;;;0.50;0.50;;;16.70;99.90;;;;;;5064718;28;20210;-61
2022/06/09 01:16:29;;;;;;;0.50;0.50;;;16.80;99.90;;;;;;5054899;28;20200;-62
2022/06/09 01:19:10;;;;;;;0.40;0.40;;;16.90;99.90;;;;;;5068517;28;20289;-64
2022/06/09 01:22:04;;;;;;;0.30;0.30;;;16.80;99.90;;;;;;5061590;28;20236;-64
2022/06/09 01:25:12;;;;;;;0.50;0.50;;;16.80;99.90;;;;;;5050922;28;20287;-64
2022/06/09 01:27:54;;;;;;;0.43;0.30;;;16.80;99.90;;;;;;5055243;28;20208;-63
2022/06/09 01:30:24;;;;;;;1.33;0.77;;;16.80;99.90;;;;;;5065131;28;20700;-64
2022/06/09 01:32:59;;;;;;;0.40;0.40;;;16.80;99.90;;;;;;5063818;28;20618;-62
2022/06/09 01:35:32;;;;;;;0.60;0.60;;;16.80;99.90;;;;;;5056909;28;20657;-64
2022/06/09 01:38:01;;;;;;;0.60;0.60;;;16.80;99.90;;;;;;5062109;28;20208;-62
2022/06/09 01:40:29;;;;;;;0.30;0.30;;;16.90;99.90;;;;;;5066299;28;20709;-64
2022/06/09 01:42:57;;;;;;;0.27;0.27;;;16.90;99.90;;;;;;5064795;28;20619;-62
2022/06/09 01:45:28;;;;;;;1.40;0.50;;;17.00;99.90;;;;;;5061921;28;20287;-63
2022/06/09 01:48:01;;;;;;;0.57;0.57;;;17.00;99.90;;;;;;5068441;28;20599;-62
2022/06/09 01:50:35;;;;;;;0.45;0.45;;;17.00;99.90;;;;;;5062240;28;20232;-62
2022/06/09 01:53:05;;;;;;;0.52;0.52;;;16.90;99.90;;;;;;5069124;28;20253;-63
2022/06/09 01:55:35;;;;;;;0.63;0.63;;;16.90;99.90;;;;;;5060978;28;20287;-64
2022/06/09 01:58:03;;;;;;;0.50;0.50;;;16.90;99.90;;;;;;5069176;28;20752;-63
2022/06/09 02:00:30;;;;;;;0.43;0.43;;;16.90;99.90;;;;;;5061424;28;20299;-63
2022/06/09 02:03:04;;;;;;;0.40;0.40;;;16.80;99.90;;;;;;5056733;28;20207;-63
2022/06/09 02:05:37;;;;;;;0.57;0.50;;;16.80;99.90;;;;;;5064341;28;20211;-64
2022/06/09 02:08:07;;;;;;;0.60;0.60;;;16.80;99.90;;;;;;5063323;28;20274;-65
2022/06/09 02:10:35;;;;;;;0.70;0.70;;;16.80;99.90;;;;;;5057745;28;20211;-63
2022/06/09 02:13:06;;;;;;;0.40;0.40;;;16.80;99.90;;;;;;5094403;22;20256;-66
2022/06/09 02:15:38;;;;;;;0.30;0.30;;;16.80;99.90;;;;;;5075955;28;20209;-65
2022/06/09 02:18:09;;;;;;;0.40;0.40;;;16.90;99.90;;;;;;5081626;28;20257;-66
2022/06/09 02:20:41;;;;;;;0.57;0.50;;;16.90;99.90;;;;;;5078099;28;20652;-64
2022/06/09 02:23:09;;;;;;;0.40;0.40;;;16.80;99.90;;;;;;5081559;28;20714;-66
2022/06/09 02:25:36;;;;;;;0.77;0.70;;;16.80;99.90;;;;;;5083575;28;20203;-67
2022/06/09 02:28:02;;;;;;;1.30;0.50;;;16.80;99.90;;;;;;5088769;28;20203;-66
2022/06/09 02:30:29;;;;;;;0.53;0.53;;;16.90;99.90;;;;;;5081176;28;20200;-66
2022/06/09 02:32:56;;;;;;;0.63;0.50;;;16.90;99.90;;;;;;5077095;28;20867;-67
2022/06/09 02:35:24;;;;;;;0.53;0.53;;;16.90;99.90;;;;;;5083759;28;20289;-65
2022/06/09 02:37:51;;;;;;;0.70;0.70;;;16.90;99.90;;;;;;5080193;28;20669;-65
2022/06/09 02:40:18;;;;;;;0.60;0.60;;;16.90;99.90;;;;;;5082013;28;20673;-66
2022/06/09 02:42:45;;;;;;;0.50;0.50;;;16.90;99.90;;;;;;5060276;28;20219;-66
2022/06/09 02:45:17;;;;;;;0.50;0.50;;;16.90;99.90;;;;;;5086474;28;20294;-65
2022/06/09 02:47:44;;;;;;;0.60;0.60;;;16.90;99.90;;;;;;5079857;28;20740;-66
2022/06/09 02:50:12;;;;;;;0.63;0.63;;;17.00;99.90;;;;;;5091022;28;20227;-65
2022/06/09 02:52:41;;;;;;;0.50;0.50;;;17.00;99.90;;;;;;5082069;28;20745;-65
2022/06/09 02:55:09;;;;;;;0.40;0.40;;;16.90;99.90;;;;;;5081818;28;20607;-64
2022/06/09 02:57:36;;;;;;;0.97;0.87;;;16.90;99.90;;;;;;5084083;28;20687;-65
2022/06/09 03:00:06;;;;;;;0.70;0.70;;;16.80;99.90;;;;;;5082521;28;20294;-66
2022/06/09 03:02:33;;;;;;;0.87;0.87;;;16.90;99.90;;;;;;5082227;28;20223;-65
2022/06/09 03:05:01;;;;;;;0.60;0.60;;;16.90;99.90;;;;;;5080868;28;20207;-66
2022/06/09 03:07:28;;;;;;;0.60;0.60;;;16.80;99.90;;;;;;5083347;28;20198;-65
2022/06/09 03:09:56;;;;;;;0.70;0.70;;;16.80;99.90;;;;;;5074774;28;20226;-66
2022/06/09 03:12:23;;;;;;;0.90;0.90;;;16.80;99.90;;;;;;5042586;28;1102887;-66
2022/06/09 03:14:50;;;;;;;0.83;0.83;;;16.60;99.90;;;;;;5078654;28;20200;-66
2022/06/09 03:17:17;;;;;;;0.70;0.70;;;16.60;99.90;;;;;;5075465;28;20718;-65
2022/06/09 03:19:44;;;;;;;0.70;0.70;;;16.60;99.90;;;;;;5081100;28;20235;-65
2022/06/09 03:22:10;;;;;;;0.80;0.80;;;16.50;99.90;;;;;;5075280;28;20306;-65
2022/06/09 03:24:37;;;;;;;0.30;0.30;;;16.50;99.90;;;;;;5077494;28;20688;-67
2022/06/09 03:27:06;;;;;;;0.63;0.63;;;16.40;99.90;;;;;;5077875;28;20196;-64
2022/06/09 03:29:32;;;;;;;0.50;0.50;;;16.40;99.90;;;;;;5085829;28;20309;-65
2022/06/09 03:31:59;;;;;;;0.50;0.50;;;16.30;99.90;;;;;;5082692;28;20311;-65
2022/06/09 03:34:26;;;;;;;0.70;0.70;;;16.30;99.90;;;;;;5075532;28;20309;-65
2022/06/09 03:36:53;;;;;;;0.70;0.70;;;16.20;99.90;;;;;;5080967;28;20289;-65
2022/06/09 03:39:20;;;;;;;0.50;0.50;;;16.20;99.90;;;;;;5084169;28;20203;-64
2022/06/09 03:41:47;;;;;;;0.80;0.80;;;16.20;99.90;;;;;;5082860;28;20225;-67
2022/06/09 03:44:15;;;;;;;0.60;0.60;;;16.10;99.90;;;;;;5083148;28;20257;-65
2022/06/09 03:46:42;;;;;;;0.82;0.82;;;16.10;99.90;;;;;;5076474;28;20268;-66
2022/06/09 03:49:10;;;;;;;0.63;0.63;;;16.10;99.90;;;;;;5080055;28;20216;-65
2022/06/09 03:51:37;;;;;;;0.97;0.80;;;16.10;99.90;;;;;;5085059;28;20298;-64
2022/06/09 03:54:04;;;;;;;0.75;0.75;;;16.20;99.90;;;;;;5082752;28;20199;-65
2022/06/09 03:56:31;;;;;;;0.57;0.57;;;16.20;99.90;;;;;;5086264;28;20290;-65
2022/06/09 03:58:58;;;;;;;0.80;0.80;;;16.20;99.90;;;;;;5084490;28;20760;-65
2022/06/09 04:01:26;;;;;;;0.97;0.90;;;16.20;99.90;;;;;;5083989;28;20234;-66
2022/06/09 04:03:53;;;;;;;1.23;0.98;;;16.20;99.90;;;;;;5083046;28;20282;-64
2022/06/09 04:06:22;;;;;;;0.80;0.80;;;16.20;99.90;;;;;;5084145;28;20230;-66
2022/06/09 04:08:51;;;;;;;0.70;0.70;;;16.20;99.90;;;;;;5083608;28;20650;-65
2022/06/09 04:11:18;;;;;;;0.80;0.80;;;16.30;99.90;;;;;;5082152;28;20198;-65
2022/06/09 04:13:45;;;;;;;0.70;0.70;;;16.20;99.90;;;;;;5084632;28;20234;-64
2022/06/09 04:16:22;;;;;;;0.68;0.65;;;16.20;99.90;;;;;;5082711;28;20285;-66
2022/06/09 04:18:51;;;;;;;0.90;0.90;;;16.20;99.90;;;;;;5085244;28;20233;-64
2022/06/09 04:21:18;;;;;;;0.83;0.80;;;16.10;99.90;;;;;;5087342;28;20477;-65
2022/06/09 04:23:45;;;;;;;0.70;0.70;;;16.20;99.90;;;;;;5076548;28;20254;-66
2022/06/09 04:26:14;;;;;;;0.70;0.70;;;16.20;99.90;;;;;;5083419;28;20282;-65
2022/06/09 04:28:41;;;;;;;0.77;0.70;;;16.30;99.90;;;;;;5080256;28;20209;-65
2022/06/09 04:31:09;;;;;;;1.10;0.90;;;16.30;99.90;;;;;;5077623;28;20231;-66
2022/06/09 04:33:36;;;;;;;0.70;0.70;;;16.30;99.90;;;;;;5069660;28;20306;-65
2022/06/09 04:36:05;;;;;;;0.73;0.73;;;16.20;99.90;;;;;;5072005;28;21672;-66
2022/06/09 04:38:32;;;;;;;0.70;0.70;;;16.20;99.90;;;;;;5075009;28;20294;-68
2022/06/09 04:41:01;;;;;;;0.60;0.60;;;16.20;99.90;;;;;;5079801;28;20296;-66
2022/06/09 04:43:28;;;;;;;0.70;0.70;;;16.30;99.90;;;;;;5079122;28;20227;-65
2022/06/09 04:45:54;;;;;;;0.97;0.83;;;16.30;99.90;;;;;;5076882;28;20629;-66
2022/06/09 04:48:21;;;;;;;1.10;0.90;;;16.40;99.90;;;;;;5083387;28;20206;-66
2022/06/09 04:50:48;;;;;;;0.60;0.60;;;16.40;99.90;;;;;;5075106;28;20234;-67
2022/06/09 04:53:17;;;;;;;0.77;0.77;;;16.30;99.90;;;;;;5078697;28;20660;-67
2022/06/09 04:55:43;;;;;;;1.27;1.17;;;16.40;99.90;;;;;;5077054;28;20282;-67
2022/06/09 04:58:10;;;;;;;0.93;0.93;;;16.40;99.90;;;;;;5077457;28;20638;-65
2022/06/09 05:00:37;;;;;;;0.70;0.70;;;16.40;99.90;;;;;;5078558;28;20199;-66
2022/06/09 05:03:04;;;;;;;0.90;0.90;;;16.40;99.90;;;;;;5083369;28;20312;-65
2022/06/09 05:05:35;;;;;;;0.80;0.80;;;16.40;99.90;;;;;;5090911;28;20232;-66
2022/06/09 05:08:03;;;;;;;0.80;0.80;;;16.40;99.90;;;;;;5098950;28;20203;-67
2022/06/09 05:10:31;;;;;;;0.90;0.90;;;16.40;99.90;;;;;;5095093;28;20222;-67
2022/06/09 05:12:59;;;;;;;1.10;1.00;;;16.40;99.90;;;;;;5095100;28;20226;-66
2022/06/09 05:15:27;;;;;;;0.60;0.60;;;16.30;99.90;;;;;;5082234;28;20652;-67
2022/06/09 05:17:57;;;;;;;1.30;0.70;;;16.40;99.90;;;;;;5090166;28;20203;-66
2022/06/09 05:20:25;;;;;;;0.80;0.80;;;16.40;99.90;;;;;;5085176;28;20229;-66
2022/06/09 05:22:52;;;;;;;0.93;0.90;;;16.50;99.90;;;;;;5087351;28;20314;-65
2022/06/09 05:25:20;;;;;;;0.90;0.90;;;16.60;99.90;;;;;;5081603;28;20307;-66
2022/06/09 05:27:48;;;;;;;0.80;0.80;;;16.60;99.90;;;;;;5082887;28;20687;-67
2022/06/09 05:30:19;;;;;;;0.60;0.60;;;16.60;99.90;;;;;;5085917;28;20308;-67
2022/06/09 05:32:46;;;;;;;0.83;0.83;;;16.50;99.90;;;;;;5081145;28;20226;-66
2022/06/09 05:35:13;;;;;;;0.80;0.80;;;16.50;99.90;;;;;;5072530;28;20226;-66
2022/06/09 05:45:57;;;;;;;0.80;0.80;;;16.40;99.90;;;;;;5079202;28;20696;-66
2022/06/09 05:48:25;;;;;;;0.80;0.80;;;16.40;99.90;;;;;;5086249;28;20271;-66
2022/06/09 05:50:52;;;;;;;0.60;0.60;;;16.50;99.90;;;;;;5085264;28;20299;-65
2022/06/09 05:53:19;;;;;;;0.80;0.80;;;16.70;99.90;;;;;;5084375;28;20708;-67
2022/06/09 05:55:46;;;;;;;0.80;0.80;;;16.80;99.90;;;;;;5078704;28;20223;-65
2022/06/09 05:58:14;;;;;;;0.90;0.90;;;16.90;99.90;;;;;;5075158;28;20273;-66
2022/06/09 06:00:42;;;;;;;0.73;0.70;;;16.90;99.90;;;;;;5068971;28;20593;-65
2022/06/09 06:03:11;;;;;;;0.80;0.80;;;16.90;99.90;;;;;;5071581;28;20219;-64
2022/06/09 06:08:23;;;;;;;0.90;0.90;;;17.10;99.90;;;;;;5065363;28;20206;-66
2022/06/09 06:10:50;;;;;;;1.67;1.07;;;17.20;99.90;;;;;;5067988;28;20477;-67
2022/06/09 06:13:18;;;;;;;1.07;1.00;;;17.20;99.90;;;;;;5075008;28;20262;-67
2022/06/09 06:15:45;;;;;;;0.77;0.77;;;17.20;99.90;;;;;;5063259;28;20292;-68
2022/06/09 06:18:12;;;;;;;0.90;0.90;;;17.20;99.90;;;;;;5079222;28;20373;-66
2022/06/09 06:20:39;;;;;;;0.90;0.90;;;17.20;99.90;;;;;;5082390;28;20290;-68
2022/06/09 06:23:06;;;;;;;0.90;0.90;;;17.20;99.90;;;;;;5082628;28;20243;-68
2022/06/09 06:25:33;;;;;;;1.43;1.13;;;17.20;99.90;;;;;;5081285;28;20206;-66
2022/06/09 06:28:00;;;;;;;0.93;0.93;;;17.20;99.90;;;;;;5072646;28;20234;-68
2022/06/09 06:30:38;;;;;;;0.90;0.90;;;17.30;99.90;;;;;;5073659;28;20223;-64
2022/06/09 06:33:05;;;;;;;0.90;0.90;;;17.40;99.90;;;;;;5071863;28;20254;-65
2022/06/09 06:35:32;;;;;;;1.13;1.13;;;17.50;99.90;;;;;;5079742;28;20282;-65
2022/06/09 06:38:00;;;;;;;1.07;1.00;;;17.70;99.90;;;;;;5085884;28;20203;-65
2022/06/09 06:40:27;;;;;;;1.07;1.07;;;17.70;99.90;;;;;;5082790;28;20649;-67
2022/06/09 06:42:54;;;;;;;0.90;0.90;;;17.70;99.90;;;;;;5079786;28;20313;-66
2022/06/09 06:45:21;;;;;;;1.20;1.10;;;17.60;99.90;;;;;;5080152;28;20343;-66
2022/06/09 06:47:49;;;;;;;1.13;1.10;;;17.50;99.90;;;;;;5080425;28;20203;-66
2022/06/09 06:50:16;;;;;;;1.10;1.10;;;17.50;99.90;;;;;;5072523;28;20306;-67
2022/06/09 06:52:43;;;;;;;1.00;0.93;;;17.60;99.90;;;;;;5080699;28;20219;-66
2022/06/09 06:55:13;;;;;;;0.90;0.90;;;17.60;99.90;;;;;;5086764;28;20293;-67
2022/06/09 06:57:40;;;;;;;0.77;0.70;;;17.70;99.90;;;;;;5082129;28;20564;-67
2022/06/09 07:00:10;;;;;;;0.93;0.90;;;17.80;99.90;;;;;;5074831;28;20223;-66
2022/06/09 07:02:36;;;;;;;1.10;1.00;;;17.80;99.90;;;;;;5083030;28;20258;-67
2022/06/09 07:05:05;;;;;;;0.90;0.90;;;17.90;99.90;;;;;;5088034;28;20744;-67
2022/06/09 07:07:32;;;;;;;0.85;0.85;;;18.00;99.90;;;;;;5075082;28;20289;-68
2022/06/09 07:09:59;;;;;;;1.10;1.00;;;18.10;99.90;;;;;;5081724;28;20250;-66
2022/06/09 07:12:26;;;;;;;0.87;0.87;;;18.30;99.90;;;;;;5085408;28;20731;-65
2022/06/09 07:14:53;;;;;;;0.70;0.70;;;18.30;99.90;;;;;;5080538;28;20290;-66
2022/06/09 07:17:20;;;;;;;1.20;1.10;;;18.20;99.90;;;;;;5087619;28;20238;-68
2022/06/09 07:19:47;;;;;;;1.50;1.27;;;18.30;99.90;;;;;;5081203;28;20619;-67
2022/06/09 07:22:15;;;;;;;1.03;0.93;;;18.50;99.90;;;;;;5089473;28;20218;-66
2022/06/09 07:24:43;;;;;;;0.97;0.97;;;18.70;99.90;;;;;;5078584;28;20230;-67
2022/06/09 07:27:10;;;;;;;1.10;1.00;;;18.80;99.90;;;;;;5084314;28;20208;-65
2022/06/09 07:29:36;;;;;;;2.03;0.97;;;18.80;99.90;;;;;;5084309;28;20297;-64
2022/06/09 07:32:04;;;;;;;0.80;0.80;;;18.80;99.90;;;;;;5083320;28;20223;-68
2022/06/09 07:34:31;;;;;;;1.70;1.00;;;18.90;99.90;;;;;;5077735;28;20761;-65
2022/06/09 07:36:58;;;;;;;0.87;0.87;;;18.90;99.90;;;;;;5079718;28;20217;-67
2022/06/09 07:39:26;;;;;;;1.20;1.10;;;18.70;99.90;;;;;;5079968;28;20211;-66
2022/06/09 07:41:53;;;;;;;0.90;0.90;;;18.50;99.90;;;;;;5079290;28;20222;-66
2022/06/09 07:44:20;;;;;;;1.10;1.00;;;18.50;99.90;;;;;;5079896;28;20290;-67
2022/06/09 07:46:47;;;;;;;1.07;1.07;;;18.40;99.90;;;;;;5079622;28;20291;-65
2022/06/09 07:49:14;;;;;;;1.20;1.10;;;18.40;99.90;;;;;;5077881;28;20199;-67
2022/06/09 07:51:42;;;;;;;0.80;0.80;;;18.30;99.90;;;;;;5074853;28;20226;-65
2022/06/09 07:54:09;;;;;;;1.13;1.07;;;18.20;99.90;;;;;;5072560;28;20657;-66
2022/06/09 07:56:37;;;;;;;0.90;0.90;;;18.10;99.90;;;;;;5083913;28;20203;-65
2022/06/09 07:59:07;;;;;;;0.73;0.73;;;18.20;99.90;;;;;;5082219;28;20217;-65
2022/06/09 08:01:34;;;;;;;1.03;0.93;;;18.30;99.90;;;;;;5083640;28;20248;-66
2022/06/09 08:04:02;;;;;;;0.97;0.97;;;18.30;99.90;;;;;;5081942;28;20293;-66
2022/06/09 08:06:29;;;;;;;0.90;0.90;;;18.30;99.90;;;;;;5077713;28;20206;-67
2022/06/09 08:08:58;;;;;;;0.90;0.90;;;18.30;99.90;;;;;;5080675;28;20671;-67
2022/06/09 08:11:27;;;;;;;0.97;0.97;;;18.70;99.90;;;;;;5082784;28;20250;-67
2022/06/09 08:13:56;;;;;;;1.13;1.03;;;19.00;99.90;;;;;;5076816;28;20215;-66
2022/06/09 08:16:23;;;;;;;3.57;1.00;;;19.00;99.90;;;;;;5079231;28;20210;-67
2022/06/09 08:18:50;;;;;;;1.00;1.00;;;18.90;99.90;;;;;;5089044;28;20222;-66
2022/06/09 08:21:17;;;;;;;0.90;0.90;;;18.80;99.90;;;;;;5083831;28;20226;-66
2022/06/09 08:23:44;;;;;;;1.20;1.10;;;18.70;99.90;;;;;;5089136;28;20229;-66
2022/06/09 08:26:11;;;;;;;0.93;0.93;;;18.70;99.90;;;;;;5084860;28;20212;-67
2022/06/09 08:28:38;;;;;;;1.73;1.10;;;18.60;99.90;;;;;;5085303;28;20298;-65
2022/06/09 08:31:06;;;;;;;1.13;1.10;;;18.50;99.90;;;;;;5102813;28;20257;-66
2022/06/09 08:33:35;;;;;;;1.00;1.00;;;18.30;99.90;;;;;;5083696;28;20233;-66
2022/06/09 08:36:02;;;;;;;1.00;1.00;;;18.20;99.90;;;;;;5076656;28;20608;-66
2022/06/09 08:38:29;;;;;;;1.27;1.00;;;18.00;99.90;;;;;;5087888;28;20217;-65
2022/06/09 08:41:02;;;;;;;1.10;1.00;;;17.80;99.90;;;;;;5082443;28;20580;-66
2022/06/09 08:43:38;;;;;;;1.15;1.05;;;17.60;99.90;;;;;;5087711;28;20740;-67
2022/06/09 08:46:24;;;;;;;1.33;1.23;;;17.60;99.90;;;;;;5084565;28;20216;-65
2022/06/09 08:48:55;;;;;;;1.10;1.00;;;17.60;99.90;;;;;;5084971;28;20226;-68
2022/06/09 08:51:33;;;;;;;0.90;0.90;;;17.60;99.90;;;;;;5073195;28;20705;-67
2022/06/09 08:54:06;;;;;;;1.27;1.17;;;17.50;99.90;;;;;;5081756;28;20221;-66
2022/06/09 08:56:33;;;;;;;1.10;1.10;;;17.50;99.90;;;;;;5073845;28;20294;-64
2022/06/09 08:59:03;;;;;;;1.00;1.00;;;17.50;99.90;;;;;;5076843;28;20207;-65
2022/06/09 09:01:38;;;;;;;1.20;1.10;;;17.90;99.90;;;;;;5084133;28;20769;-66
2022/06/09 09:04:15;;;;;;;0.70;0.70;;;18.20;99.90;;;;;;5081578;28;20310;-68
2022/06/09 09:06:50;;;;;;;1.90;1.17;;;18.70;99.90;;;;;;5084709;28;20259;-67
2022/06/09 09:09:22;;;;;;;1.15;1.13;;;19.30;99.90;;;;;;5080708;28;20199;-65
2022/06/09 09:11:57;;;;;;;1.10;1.10;;;19.40;99.90;;;;;;5086083;28;20302;-65
2022/06/09 09:14:30;;;;;;;1.83;1.00;;;19.20;99.90;;;;;;5079548;28;20286;-65
2022/06/09 09:17:10;;;;;;;1.10;1.10;;;18.80;99.90;;;;;;5087508;28;20750;-65
2022/06/09 09:19:47;;;;;;;0.90;0.90;;;18.50;99.90;;;;;;5081116;28;20207;-65
2022/06/09 09:22:22;;;;;;;1.17;1.07;;;18.70;99.90;;;;;;5087635;28;20219;-64
2022/06/09 09:24:59;;;;;;;1.00;0.97;;;19.20;99.90;;;;;;5079386;28;20286;-65
2022/06/09 09:27:36;;;;;;;1.10;1.00;;;19.40;99.90;;;;;;5071548;28;20199;-65
2022/06/09 09:30:16;;;;;;;1.10;1.00;;;19.60;99.90;;;;;;5083426;28;20212;-65
2022/06/09 09:32:46;;;;;;;1.50;1.40;;;20.10;99.90;;;;;;5077501;28;20223;-66
2022/06/09 09:35:18;;;;;;;1.33;1.00;;;20.00;99.90;;;;;;5083113;28;20208;-65
2022/06/09 09:37:47;;;;;;;1.10;1.10;;;19.80;99.90;;;;;;5079031;28;20653;-64
2022/06/09 09:40:20;;;;;;;0.93;0.83;;;19.80;99.90;;;;;;5079140;28;20234;-65
2022/06/09 09:42:48;;;;;;;0.90;0.90;;;19.90;99.90;;;;;;5081532;28;20222;-64
2022/06/09 09:45:18;;;;;;;0.73;0.73;;;20.10;99.90;;;;;;5083136;28;20233;-64
2022/06/09 09:47:50;;;;;;;1.23;1.20;;;20.00;99.90;;;;;;5088854;28;20241;-64
2022/06/09 09:50:27;;;;;;;1.07;1.07;;;19.80;99.90;;;;;;5089335;28;20649;-65
2022/06/09 09:53:02;;;;;;;1.00;1.00;;;19.60;99.90;;;;;;5079281;28;20237;-64
2022/06/09 09:55:32;;;;;;;1.00;1.00;;;19.30;99.90;;;;;;5104054;28;20220;-64
2022/06/09 09:58:16;;;;;;;0.90;0.90;;;19.20;99.90;;;;;;5096940;28;20213;-66
2022/06/09 10:00:44;;;;;;;1.00;1.00;;;19.20;99.90;;;;;;5097869;28;20203;-66
2022/06/09 10:08:53;;;;;;;0.87;0.87;;;20.70;99.90;;;;;;5082758;28;20220;-68
2022/06/09 10:14:45;;;;;;;0.80;0.80;;;21.30;99.90;;;;;;5081322;28;20213;-65
2022/06/09 10:17:37;;;;;;;1.00;0.90;;;21.00;99.90;;;;;;5085763;28;21528;-66
2022/06/09 10:20:21;;;;;;;1.50;1.20;;;20.50;99.90;;;;;;5081602;28;20217;-65
2022/06/09 10:22:59;;;;;;;1.00;0.90;;;20.20;99.90;;;;;;5081815;28;20292;-65
2022/06/09 10:25:31;;;;;;;1.17;1.03;;;20.10;99.90;;;;;;5070038;28;20289;-65
2022/06/09 10:28:03;;;;;;;1.20;1.10;;;20.20;99.90;;;;;;5085872;28;20245;-67
2022/06/09 10:30:36;;;;;;;0.90;0.90;;;20.70;99.90;;;;;;5081903;28;20210;-66
2022/06/09 10:33:09;;;;;;;1.20;1.10;;;20.90;99.90;;;;;;5068903;28;20305;-66
2022/06/09 10:35:45;;;;;;;1.00;1.00;;;20.80;99.90;;;;;;5073339;28;20203;-66
2022/06/09 10:38:19;;;;;;;0.70;0.70;;;20.30;99.90;;;;;;5082527;28;20286;-68
2022/06/09 10:40:51;;;;;;;0.85;0.85;;;19.90;99.90;;;;;;5070998;28;20253;-64
2022/06/09 10:43:27;;;;;;;0.80;0.80;;;19.70;99.90;;;;;;5085256;28;20307;-66
2022/06/09 10:45:59;;;;;;;0.63;0.63;;;19.60;99.90;;;;;;5071615;28;20206;-65
2022/06/09 10:57:05;;;;;;;0.87;0.73;;;19.60;99.90;;;;;;5044016;28;20283;-63
2022/06/09 10:59:37;;;;;;;0.80;0.80;;;19.40;99.90;;;;;;5079456;28;20284;-65
2022/06/09 11:02:12;;;;;;;1.00;1.00;;;19.20;99.90;;;;;;5079490;28;20306;-65
2022/06/09 11:04:40;;;;;;;0.80;0.80;;;18.70;99.90;;;;;;5072622;28;20212;-65
2022/06/09 11:07:38;;;;;;;0.90;0.90;;;18.30;99.90;;;;;;5075852;28;20202;-65
2022/06/09 11:10:22;;;;;;;0.90;0.90;;;18.10;99.90;;;;;;5062070;28;20203;-65
2022/06/09 11:13:07;;;;;;;0.70;0.70;;;18.00;99.90;;;;;;5081946;28;20645;-64
2022/06/09 11:15:38;;;;;;;0.60;0.60;;;18.30;99.90;;;;;;5072839;28;20234;-65
2022/06/09 11:18:19;;;;;;;1.07;0.97;;;18.50;99.90;;;;;;5080856;28;20203;-64
2022/06/09 11:21:00;;;;;;;0.80;0.80;;;18.80;99.90;;;;;;5070024;28;20633;-65
2022/06/09 11:23:41;;;;;;;0.60;0.60;;;18.90;99.90;;;;;;5081261;28;20261;-66
2022/06/09 11:26:18;;;;;;;0.97;0.90;;;19.00;99.90;;;;;;5076105;28;20252;-64
2022/06/09 11:28:54;;;;;;;1.00;1.00;;;19.20;99.90;;;;;;5080087;28;20736;-65
2022/06/09 11:31:44;;;;;;;1.37;1.27;;;19.30;99.90;;;;;;5072924;28;20223;-63
2022/06/09 11:34:38;;;;;;;0.80;0.80;;;19.50;99.90;;;;;;5081027;28;20217;-64
2022/06/09 11:37:19;;;;;;;0.93;0.90;;;19.60;99.90;;;;;;5081407;28;20290;-67
2022/06/09 11:39:58;;;;;;;0.80;0.80;;;19.60;99.90;;;;;;5084455;28;20260;-65
2022/06/09 11:42:40;;;;;;;0.70;0.70;;;19.50;99.90;;;;;;5080587;28;20219;-64
2022/06/09 11:45:23;;;;;;;0.90;0.90;;;19.30;99.90;;;;;;5085622;28;20298;-66
2022/06/09 11:47:52;;;;;;;0.90;0.90;;;19.30;99.90;;;;;;5083989;28;20198;-65
2022/06/09 11:50:21;;;;;;;1.20;1.10;;;19.10;99.90;;;;;;5080516;28;20195;-64
2022/06/09 11:52:50;;;;;;;0.87;0.87;;;18.90;99.90;;;;;;5080261;28;20227;-66
2022/06/09 11:58:42;;;;;;;1.07;1.00;;;18.70;99.90;;;;;;5084304;28;20251;-65
2022/06/09 12:01:20;;;;;;;0.90;0.90;;;18.70;99.90;;;;;;5068083;28;20221;-65
2022/06/09 12:04:02;;;;;;;1.10;1.00;;;18.70;99.90;;;;;;5084079;28;20226;-64
2022/06/09 12:06:44;;;;;;;0.80;0.80;;;18.80;99.90;;;;;;5076190;28;20198;-65
2022/06/09 12:09:20;;;;;;;0.77;0.77;;;19.00;99.90;;;;;;5089578;28;20226;-65
2022/06/09 12:11:58;;;;;;;0.87;0.87;;;19.10;99.90;;;;;;5095445;28;20295;-65
2022/06/09 12:14:29;;;;;;;1.00;1.00;;;19.20;99.90;;;;;;5083636;28;20563;-65
2022/06/09 12:17:08;;;;;;;1.10;1.10;;;19.30;99.90;;;;;;5093618;28;20710;-64
2022/06/09 12:19:49;;;;;;;1.23;1.13;;;19.40;99.90;;;;;;5084209;28;20203;-65
2022/06/09 12:22:46;;;;;;;1.10;1.00;;;19.80;99.90;;;;;;5092528;28;20211;-65
2022/06/09 12:25:33;;;;;;;0.80;0.80;;;20.00;99.90;;;;;;5082632;28;20282;-64
2022/06/09 12:28:03;;;;;;;1.30;1.20;;;19.90;99.90;;;;;;5082585;28;20198;-65
2022/06/09 12:30:37;;;;;;;1.17;1.08;;;19.90;99.90;;;;;;5084256;28;20209;-65
2022/06/09 12:33:34;;;;;;;1.00;1.00;;;19.90;99.90;;;;;;5081399;28;20253;-63
2022/06/09 12:36:04;;;;;;;1.20;1.10;;;20.00;99.90;;;;;;5077506;28;20207;-65
2022/06/09 12:38:35;;;;;;;0.70;0.70;;;20.10;99.90;;;;;;5083806;28;20211;-65
2022/06/09 12:41:13;;;;;;;0.90;0.90;;;20.60;99.90;;;;;;5080665;28;20302;-65
2022/06/09 12:43:44;;;;;;;1.10;1.00;;;20.60;99.90;;;;;;5082982;28;20291;-64
2022/06/09 12:46:23;;;;;;;0.82;0.82;;;20.80;99.90;;;;;;5081525;28;20687;-64
2022/06/09 12:48:53;;;;;;;0.90;0.90;;;21.10;99.90;;;;;;5082910;28;20203;-66
2022/06/09 12:51:27;;;;;;;0.70;0.63;;;21.30;99.90;;;;;;5069260;28;20223;-65
2022/06/09 12:54:01;;;;;;;1.03;1.03;;;21.50;99.90;;;;;;5080891;28;20207;-68
2022/06/09 12:56:35;;;;;;;1.00;1.00;;;21.70;99.90;;;;;;5073283;28;20581;-65
2022/06/09 12:59:17;;;;;;;0.93;0.93;;;21.90;99.90;;;;;;5081692;28;20210;-66
2022/06/09 13:02:02;;;;;;;1.00;0.95;;;21.90;99.90;;;;;;5083120;28;20198;-66
2022/06/09 13:04:32;;;;;;;0.90;0.90;;;22.00;99.90;;;;;;5082682;28;20737;-65
2022/06/09 13:07:00;;;;;;;0.98;0.98;;;22.20;99.90;;;;;;5082478;28;20224;-66
2022/06/09 13:09:31;;;;;;;0.82;0.82;;;22.30;99.90;;;;;;5082044;28;20229;-67
2022/06/09 13:14:48;;;;;;;0.90;0.90;;;22.00;99.90;;;;;;5082556;28;20207;-65
2022/06/09 13:17:19;;;;;;;1.10;1.10;;;22.10;99.90;;;;;;5090333;28;20222;-65
2022/06/09 13:19:56;;;;;;;1.10;1.10;;;22.10;99.90;;;;;;5083121;28;20569;-66
2022/06/09 13:22:25;;;;;;;1.20;1.10;;;21.50;99.90;;;;;;5075770;28;20246;-65
2022/06/09 13:24:53;;;;;;;1.00;1.00;;;21.00;99.90;;;;;;5081983;28;20207;-66
2022/06/09 13:27:25;;;;;;;0.90;0.90;;;20.60;99.90;;;;;;5079270;28;20210;-64
2022/06/09 13:30:03;;;;;;;0.80;0.80;;;20.70;99.90;;;;;;5080581;28;20230;-65
2022/06/09 13:32:37;;;;;;;0.63;0.63;;;20.80;99.90;;;;;;5085773;28;20227;-65
2022/06/09 13:35:37;;;;;;;0.90;0.90;;;21.00;99.90;;;;;;5088893;28;20201;-66
2022/06/09 13:38:17;;;;;;;0.93;0.90;;;21.00;99.90;;;;;;5083716;28;20203;-66
2022/06/09 13:40:48;;;;;;;0.93;0.93;;;21.10;99.90;;;;;;5084283;28;20204;-66
2022/06/09 13:43:27;;;;;;;0.60;0.60;;;21.10;99.90;;;;;;5090665;28;20241;-66